createdAt,value
2023-02-02T00:02:07.522Z,78.45
2023-02-02T00:04:35.752Z,78.70
2023-02-02T00:06:59.065Z,78.96
2023-02-02T00:09:21.713Z,79.21
2023-02-02T00:11:46.011Z,79.27
2023-02-02T00:14:08.568Z,78.77
2023-02-02T00:16:31.188Z,79.38
2023-02-02T00:18:55.859Z,77.74
2023-02-02T00:21:18.503Z,77.81
2023-02-02T00:23:41.068Z,77.64
2023-02-02T00:26:03.729Z,77.26
2023-02-02T00:28:26.491Z,77.10
2023-02-02T00:30:49.116Z,77.17
2023-02-02T00:33:11.861Z,76.59
2023-02-02T00:35:34.458Z,76.25
2023-02-02T00:37:57.005Z,76.35
2023-02-02T00:40:19.792Z,76.62
2023-02-02T00:42:43.603Z,76.78
2023-02-02T00:45:18.621Z,76.01
2023-02-02T00:47:45.547Z,75.43
2023-02-02T00:50:09.237Z,75.93
2023-02-02T00:52:32.196Z,75.80
2023-02-02T00:54:54.849Z,75.43
2023-02-02T00:57:17.970Z,74.98
2023-02-02T00:59:41.406Z,73.00
2023-02-02T01:02:04.179Z,71.75
2023-02-02T01:04:26.995Z,72.53
2023-02-02T01:06:49.801Z,73.46
2023-02-02T01:09:12.489Z,73.77
2023-02-02T01:11:35.378Z,73.92
2023-02-02T01:13:58.255Z,74.48
2023-02-02T01:16:22.619Z,75.21
2023-02-02T01:18:45.306Z,75.47
2023-02-02T01:21:10.673Z,75.81
2023-02-02T01:23:36.323Z,75.96
2023-02-02T01:26:00.949Z,76.03
2023-02-02T01:28:24.847Z,76.34
2023-02-02T01:30:48.033Z,76.89
2023-02-02T01:33:11.100Z,78.03
2023-02-02T01:35:33.648Z,79.27
2023-02-02T01:37:56.421Z,80.49
2023-02-02T01:40:19.336Z,81.43
2023-02-02T01:42:41.892Z,82.27
2023-02-02T01:45:13.464Z,82.95
2023-02-02T01:47:43.063Z,83.22
2023-02-02T01:50:08.019Z,83.53
2023-02-02T01:52:33.769Z,83.71
2023-02-02T01:55:01.284Z,83.73
2023-02-02T01:57:30.617Z,84.09
2023-02-02T01:59:56.335Z,83.72
2023-02-02T02:02:19.791Z,83.99
2023-02-02T02:04:43.862Z,83.81
2023-02-02T02:07:07.434Z,83.76
2023-02-02T02:09:30.142Z,83.92
2023-02-02T02:11:54.715Z,83.88
2023-02-02T02:14:36.492Z,84.19
2023-02-02T02:17:18.378Z,83.90
2023-02-02T02:21:04.396Z,83.87
2023-02-02T02:24:43.156Z,84.01
2023-02-02T02:27:39.703Z,84.00
2023-02-02T02:30:07.241Z,83.73
2023-02-02T02:32:40.587Z,83.78
2023-02-02T02:35:06.230Z,83.91
2023-02-02T02:37:39.182Z,83.67
2023-02-02T02:40:29.248Z,83.61
2023-02-02T02:43:01.096Z,83.16
2023-02-02T02:45:26.852Z,83.09
2023-02-02T02:47:50.531Z,82.80
2023-02-02T02:50:13.378Z,82.75
2023-02-02T02:52:37.020Z,82.66
2023-02-02T02:55:01.972Z,82.63
2023-02-02T02:57:34.147Z,82.90
2023-02-02T03:00:10.008Z,83.50
2023-02-02T03:02:42.418Z,83.84
2023-02-02T03:05:24.426Z,83.52
2023-02-02T03:08:11.950Z,83.84
2023-02-02T03:10:36.292Z,83.49
2023-02-02T03:12:58.952Z,83.50
2023-02-02T03:15:22.456Z,83.67
2023-02-02T03:17:47.987Z,83.62
2023-02-02T03:20:11.289Z,83.58
2023-02-02T03:22:33.806Z,83.18
2023-02-02T03:24:56.982Z,82.72
2023-02-02T03:27:19.514Z,83.04
2023-02-02T03:29:42.168Z,82.96
2023-02-02T03:32:05.201Z,82.84
2023-02-02T03:34:27.760Z,82.78
2023-02-02T03:36:50.314Z,83.51
2023-02-02T03:39:12.977Z,84.26
2023-02-02T03:41:35.561Z,84.46
2023-02-02T03:43:58.242Z,84.72
2023-02-02T03:46:20.817Z,84.79
2023-02-02T03:48:43.569Z,84.88
2023-02-02T03:51:14.639Z,84.84
2023-02-02T03:53:37.722Z,84.86
2023-02-02T03:56:00.502Z,85.07
2023-02-02T03:58:23.924Z,85.32
2023-02-02T04:00:46.492Z,85.42
2023-02-02T04:03:09.602Z,85.58
2023-02-02T04:05:32.426Z,85.92
2023-02-02T04:07:55.511Z,86.26
2023-02-02T04:10:18.736Z,86.66
2023-02-02T04:12:41.258Z,86.92
2023-02-02T04:15:04.369Z,86.96
2023-02-02T04:17:27.069Z,87.20
2023-02-02T04:19:49.748Z,86.98
2023-02-02T04:22:12.435Z,86.80
2023-02-02T04:24:36.619Z,85.95
2023-02-02T04:27:00.549Z,85.60
2023-02-02T04:29:23.370Z,85.65
2023-02-02T04:31:46.119Z,85.49
2023-02-02T04:34:08.821Z,85.60
2023-02-02T04:36:31.566Z,85.54
2023-02-02T04:38:55.323Z,85.44
2023-02-02T04:41:20.875Z,85.48
2023-02-02T04:44:24.547Z,85.33
2023-02-02T04:46:47.103Z,85.35
2023-02-02T04:49:12.546Z,85.34
2023-02-02T04:51:35.619Z,85.46
2023-02-02T04:53:58.173Z,85.30
2023-02-02T04:56:20.960Z,85.42
2023-02-02T04:58:45.279Z,85.40
2023-02-02T05:01:10.676Z,85.00
2023-02-02T05:03:33.241Z,84.98
2023-02-02T05:06:03.442Z,84.86
2023-02-02T05:08:26.339Z,84.65
2023-02-02T05:10:50.277Z,84.65
2023-02-02T05:13:12.839Z,84.55
2023-02-02T05:15:35.664Z,84.43
2023-02-02T05:17:58.500Z,84.37
2023-02-02T05:20:21.054Z,84.37
2023-02-02T05:22:43.621Z,84.45
2023-02-02T05:25:07.144Z,84.53
2023-02-02T05:27:30.151Z,84.50
2023-02-02T05:29:53.945Z,84.63
2023-02-02T05:32:16.965Z,84.85
2023-02-02T05:34:39.611Z,84.92
2023-02-02T05:37:02.244Z,84.98
2023-02-02T05:39:25.147Z,84.89
2023-02-02T05:41:47.773Z,84.91
2023-02-02T05:44:13.893Z,84.72
2023-02-02T05:46:36.486Z,84.81
2023-02-02T05:48:59.423Z,84.84
2023-02-02T05:51:29.619Z,84.80
2023-02-02T05:53:52.269Z,84.91
2023-02-02T05:56:16.014Z,84.91
2023-02-02T05:58:39.739Z,85.34
2023-02-02T06:01:02.617Z,85.16
2023-02-02T06:03:25.448Z,85.19
2023-02-02T06:05:48.247Z,85.26
2023-02-02T06:08:11.338Z,85.27
2023-02-02T06:10:33.894Z,85.18
2023-02-02T06:12:56.576Z,85.37
2023-02-02T06:15:19.167Z,85.14
2023-02-02T06:17:41.757Z,85.19
2023-02-02T06:20:04.986Z,85.23
2023-02-02T06:22:28.186Z,84.97
2023-02-02T06:24:53.496Z,84.75
2023-02-02T06:27:16.144Z,84.65
2023-02-02T06:29:38.923Z,84.53
2023-02-02T06:32:01.853Z,84.12
2023-02-02T06:34:24.608Z,83.97
2023-02-02T06:36:47.315Z,83.22
2023-02-02T06:39:10.422Z,83.35
2023-02-02T06:41:33.285Z,83.42
2023-02-02T06:43:55.919Z,83.28
2023-02-02T06:46:18.951Z,82.77
2023-02-02T06:48:41.851Z,82.26
2023-02-02T06:51:05.643Z,82.21
2023-02-02T06:53:28.277Z,81.43
2023-02-02T06:55:58.678Z,81.07
2023-02-02T06:58:21.553Z,80.17
2023-02-02T07:00:45.399Z,78.98
2023-02-02T07:03:08.203Z,77.93
2023-02-02T07:05:31.446Z,77.79
2023-02-02T07:07:54.520Z,76.67
2023-02-02T07:11:09.203Z,75.48
2023-02-02T07:13:01.730Z,74.60
2023-02-02T07:15:24.769Z,74.82
2023-02-02T07:17:48.786Z,75.26
2023-02-02T07:20:11.772Z,75.03
2023-02-02T07:22:34.563Z,74.74
2023-02-02T07:24:57.107Z,74.62
2023-02-02T07:27:19.844Z,74.40
2023-02-02T07:29:42.948Z,73.73
2023-02-02T07:32:06.089Z,73.78
2023-02-02T07:34:28.863Z,73.84
2023-02-02T07:36:51.451Z,73.47
2023-02-02T07:39:14.422Z,72.82
2023-02-02T07:41:37.445Z,73.10
2023-02-02T07:44:00.271Z,72.52
2023-02-02T07:46:23.452Z,72.54
2023-02-02T07:48:46.582Z,72.41
2023-02-02T07:51:12.771Z,72.56
2023-02-02T07:53:35.681Z,72.20
2023-02-02T07:56:08.361Z,72.26
2023-02-02T07:58:31.008Z,72.14
2023-02-02T08:00:53.788Z,72.41
2023-02-02T08:03:16.806Z,72.55
2023-02-02T08:05:42.291Z,72.67
2023-02-02T08:08:05.345Z,72.35
2023-02-02T08:10:28.831Z,71.44
2023-02-02T08:12:51.522Z,70.37
2023-02-02T08:15:14.304Z,69.85
2023-02-02T08:17:37.661Z,69.75
2023-02-02T08:20:00.367Z,69.40
2023-02-02T08:22:23.069Z,68.45
2023-02-02T08:24:45.900Z,68.74
2023-02-02T08:27:09.614Z,68.31
2023-02-02T08:29:32.435Z,67.75
2023-02-02T08:31:55.322Z,68.80
2023-02-02T08:34:18.033Z,69.02
2023-02-02T08:36:41.320Z,69.70
2023-02-02T08:39:07.408Z,70.01
2023-02-02T08:41:30.669Z,69.59
2023-02-02T08:43:53.325Z,68.91
2023-02-02T08:46:18.537Z,68.94
2023-02-02T08:48:41.915Z,67.75
2023-02-02T08:51:07.592Z,67.51
2023-02-02T08:53:31.958Z,66.94
2023-02-02T08:56:06.695Z,67.70
2023-02-02T08:58:30.465Z,67.85
2023-02-02T09:00:55.052Z,67.92
2023-02-02T09:03:18.258Z,68.19
2023-02-02T09:05:40.857Z,67.69
2023-02-02T09:08:03.673Z,67.50
2023-02-02T09:10:26.605Z,67.98
2023-02-02T09:12:49.331Z,67.42
2023-02-02T09:15:12.879Z,67.02
2023-02-02T09:17:35.577Z,66.50
2023-02-02T09:19:58.411Z,65.13
2023-02-02T09:22:21.524Z,64.50
2023-02-02T09:24:44.189Z,63.70
2023-02-02T09:27:07.069Z,63.09
2023-02-02T09:29:29.741Z,62.24
2023-02-02T09:31:52.417Z,62.43
2023-02-02T09:34:15.834Z,61.76
2023-02-02T09:36:39.987Z,60.92
2023-02-02T09:39:03.687Z,61.16
2023-02-02T09:41:40.988Z,60.49
2023-02-02T09:44:30.324Z,62.10
2023-02-02T09:47:38.849Z,62.84
2023-02-02T09:50:29.665Z,61.31
2023-02-02T09:52:58.196Z,60.50
2023-02-02T09:55:23.858Z,60.92
2023-02-02T09:57:52.095Z,59.79
2023-02-02T10:00:30.754Z,59.84
2023-02-02T10:02:58.911Z,59.42
2023-02-02T10:05:28.187Z,59.48
2023-02-02T10:07:56.824Z,59.19
2023-02-02T10:10:34.720Z,60.44
2023-02-02T10:13:00.419Z,59.72
2023-02-02T10:15:35.468Z,60.24
2023-02-02T10:18:06.196Z,60.87
2023-02-02T10:20:48.949Z,60.14
2023-02-02T10:23:35.775Z,59.33
2023-02-02T10:26:23.722Z,59.93
2023-02-02T10:28:59.590Z,59.62
2023-02-02T10:31:57.011Z,59.13
2023-02-02T10:34:35.463Z,60.60
2023-02-02T10:37:28.460Z,60.41
2023-02-02T10:40:19.635Z,60.71
2023-02-02T10:43:12.918Z,60.08
2023-02-02T10:45:37.844Z,60.34
2023-02-02T10:48:00.987Z,60.89
2023-02-02T10:50:24.697Z,61.15
2023-02-02T10:52:54.975Z,59.41
2023-02-02T10:56:07.102Z,59.51
2023-02-02T10:58:36.676Z,60.30
2023-02-02T11:01:01.512Z,60.78
2023-02-02T11:03:28.675Z,60.09
2023-02-02T11:06:10.486Z,60.84
2023-02-02T11:08:40.045Z,60.55
2023-02-02T11:11:13.325Z,60.48
2023-02-02T11:13:42.591Z,59.96
2023-02-02T11:16:19.403Z,59.65
2023-02-02T11:18:44.309Z,59.46
2023-02-02T11:21:31.576Z,60.33
2023-02-02T11:24:03.049Z,60.19
2023-02-02T11:26:27.161Z,59.32
2023-02-02T11:28:52.694Z,59.67
2023-02-02T11:31:37.689Z,58.71
2023-02-02T11:34:13.045Z,58.95
2023-02-02T11:36:36.011Z,58.99
2023-02-02T11:39:20.847Z,59.26
2023-02-02T11:41:43.668Z,59.65
2023-02-02T11:44:08.223Z,60.00
2023-02-02T11:46:34.851Z,58.87
2023-02-02T11:49:00.182Z,58.56
2023-02-02T11:51:26.107Z,59.10
2023-02-02T11:53:49.334Z,58.89
2023-02-02T11:56:25.906Z,60.09
2023-02-02T11:58:50.782Z,58.38
2023-02-02T12:01:34.823Z,59.22
2023-02-02T12:04:22.449Z,59.57
2023-02-02T12:06:46.459Z,59.53
2023-02-02T12:09:25.710Z,58.27
2023-02-02T12:12:03.188Z,58.08
2023-02-02T12:14:40.854Z,58.42
2023-02-02T12:17:30.090Z,58.48
2023-02-02T12:19:53.094Z,59.22
2023-02-02T12:22:43.481Z,59.57
2023-02-02T12:25:15.121Z,59.78
2023-02-02T12:28:00.753Z,60.34
2023-02-02T12:30:24.153Z,61.03
2023-02-02T12:33:05.565Z,58.80
2023-02-02T12:35:52.555Z,60.02
2023-02-02T12:38:33.842Z,59.52
2023-02-02T12:41:11.681Z,60.22
2023-02-02T12:43:39.778Z,59.09
2023-02-02T12:46:23.866Z,58.63
2023-02-02T12:48:55.617Z,58.00
2023-02-02T12:51:36.366Z,59.28
2023-02-02T12:54:45.207Z,58.39
2023-02-02T12:57:51.775Z,57.98
2023-02-02T13:00:14.516Z,57.99
2023-02-02T13:03:15.473Z,58.02
2023-02-02T13:08:52.107Z,59.13
2023-02-02T13:11:32.884Z,59.06
2023-02-02T13:14:22.326Z,58.88
2023-02-02T13:16:48.876Z,58.64
2023-02-02T13:19:19.297Z,59.37
2023-02-02T13:21:44.601Z,59.42
2023-02-02T13:24:12.777Z,60.27
2023-02-02T13:26:40.372Z,60.14
2023-02-02T13:29:07.630Z,59.60
2023-02-02T13:31:35.743Z,59.75
2023-02-02T13:34:14.342Z,59.21
2023-02-02T13:36:43.994Z,60.27
2023-02-02T13:39:22.202Z,60.89
2023-02-02T13:41:46.290Z,60.34
2023-02-02T13:44:17.402Z,59.99
2023-02-02T13:46:48.213Z,60.40
2023-02-02T13:53:51.312Z,59.76
2023-02-02T13:56:35.902Z,60.10
2023-02-02T13:59:01.576Z,61.03
2023-02-02T14:01:25.625Z,61.39
2023-02-02T14:03:55.322Z,60.93
2023-02-02T14:06:23.062Z,61.63
2023-02-02T14:08:55.771Z,61.29
2023-02-02T14:11:33.911Z,61.68
2023-02-02T14:14:31.947Z,62.08
2023-02-02T14:16:56.766Z,61.93
2023-02-02T14:19:31.373Z,62.74
2023-02-02T14:22:17.426Z,61.87
2023-02-02T14:24:47.527Z,62.15
2023-02-02T14:27:10.286Z,62.40
2023-02-02T14:29:33.281Z,63.08
2023-02-02T14:32:15.246Z,62.53
2023-02-02T14:34:42.519Z,61.37
2023-02-02T14:37:29.878Z,62.26
2023-02-02T14:40:06.179Z,63.17
2023-02-02T14:43:12.669Z,63.02
2023-02-02T14:45:42.373Z,63.68
2023-02-02T14:48:07.794Z,64.00
2023-02-02T14:50:42.729Z,63.73
2023-02-02T14:53:11.334Z,64.22
2023-02-02T14:55:38.243Z,64.05
2023-02-02T14:58:03.235Z,64.70
2023-02-02T15:00:33.835Z,64.84
2023-02-02T15:02:56.551Z,64.85
2023-02-02T15:05:34.088Z,65.69
2023-02-02T15:08:05.523Z,65.51
2023-02-02T15:10:52.010Z,66.36
2023-02-02T15:13:17.563Z,66.85
2023-02-02T15:15:43.762Z,66.98
2023-02-02T15:18:15.848Z,67.39
2023-02-02T15:20:50.145Z,68.06
2023-02-02T15:23:33.128Z,68.48
2023-02-02T15:26:07.428Z,68.80
2023-02-02T15:29:00.572Z,69.08
2023-02-02T15:31:44.372Z,68.91
2023-02-02T15:34:46.590Z,68.84
2023-02-02T15:37:15.988Z,69.62
2023-02-02T15:39:41.870Z,69.39
2023-02-02T15:42:31.909Z,69.43
2023-02-02T15:44:54.556Z,69.53
2023-02-02T15:47:22.488Z,69.96
2023-02-02T15:49:46.159Z,70.25
2023-02-02T15:52:26.410Z,70.85
2023-02-02T15:54:59.878Z,70.94
2023-02-02T15:57:36.870Z,71.09
2023-02-02T16:00:00.951Z,70.89
2023-02-02T16:02:45.418Z,70.77
2023-02-02T16:05:24.544Z,71.11
2023-02-02T16:07:59.727Z,71.58
2023-02-02T16:10:27.456Z,71.53
2023-02-02T16:12:51.015Z,71.65
2023-02-02T16:15:21.788Z,72.08
2023-02-02T16:17:44.377Z,71.94
2023-02-02T16:20:14.560Z,72.02
2023-02-02T16:22:39.331Z,72.38
2023-02-02T16:25:07.571Z,72.71
2023-02-02T16:27:31.630Z,71.87
2023-02-02T16:29:58.392Z,72.36
2023-02-02T16:32:32.542Z,71.97
2023-02-02T16:34:55.532Z,72.25
2023-02-02T16:37:29.238Z,72.27
2023-02-02T16:39:52.102Z,72.64
2023-02-02T16:42:25.193Z,72.43
2023-02-02T16:44:48.802Z,72.61
2023-02-02T16:47:26.632Z,73.05
2023-02-02T16:49:49.540Z,72.78
2023-02-02T16:52:18.321Z,72.88
2023-02-02T16:54:45.585Z,73.60
2023-02-02T16:57:18.251Z,73.10
2023-02-02T16:59:40.883Z,73.86
2023-02-02T17:02:25.865Z,73.67
2023-02-02T17:04:51.890Z,73.89
2023-02-02T17:07:16.256Z,74.09
2023-02-02T17:09:41.412Z,74.63
2023-02-02T17:12:33.824Z,74.31
2023-02-02T17:15:01.674Z,74.41
2023-02-02T17:17:24.557Z,74.16
2023-02-02T17:19:47.988Z,74.31
2023-02-02T17:22:11.204Z,74.42
2023-02-02T17:24:34.536Z,74.13
2023-02-02T17:26:58.880Z,74.55
2023-02-02T17:29:22.005Z,74.43
2023-02-02T17:31:45.342Z,74.46
2023-02-02T17:34:15.142Z,74.12
2023-02-02T17:36:38.889Z,74.15
2023-02-02T17:39:01.710Z,74.06
2023-02-02T17:41:24.562Z,73.48
2023-02-02T17:43:47.514Z,73.63
2023-02-02T17:46:13.189Z,73.78
2023-02-02T17:48:37.244Z,74.07
2023-02-02T17:51:03.295Z,74.25
2023-02-02T17:53:27.777Z,73.88
2023-02-02T17:55:52.032Z,73.47
2023-02-02T17:58:17.258Z,73.84
2023-02-02T18:00:41.910Z,73.50
2023-02-02T18:03:16.572Z,74.01
2023-02-02T18:05:43.020Z,73.98
2023-02-02T18:08:06.378Z,74.22
2023-02-02T18:10:30.265Z,74.89
2023-02-02T18:12:53.405Z,75.34
2023-02-02T18:15:16.240Z,75.53
2023-02-02T18:17:38.896Z,76.16
2023-02-02T18:20:01.706Z,75.90
2023-02-02T18:22:26.223Z,76.19
2023-02-02T18:24:49.239Z,76.26
2023-02-02T18:27:12.300Z,75.80
2023-02-02T18:29:35.658Z,76.30
2023-02-02T18:31:59.335Z,76.24
2023-02-02T18:34:22.146Z,76.45
2023-02-02T18:36:45.033Z,76.87
2023-02-02T18:39:10.802Z,76.80
2023-02-02T18:41:33.718Z,77.18
2023-02-02T18:43:56.624Z,77.41
2023-02-02T18:46:19.911Z,77.39
2023-02-02T18:48:43.325Z,77.25
2023-02-02T18:51:07.410Z,77.10
2023-02-02T18:53:30.989Z,76.82
2023-02-02T18:55:53.907Z,76.87
2023-02-02T18:58:17.183Z,76.25
2023-02-02T19:00:41.065Z,76.35
2023-02-02T19:03:04.169Z,76.55
2023-02-02T19:05:46.008Z,76.40
2023-02-02T19:08:09.114Z,76.90
2023-02-02T19:10:32.047Z,77.23
2023-02-02T19:13:09.802Z,77.28
2023-02-02T19:15:37.171Z,77.81
2023-02-02T19:17:59.928Z,78.10
2023-02-02T19:20:28.592Z,78.17
2023-02-02T19:23:00.050Z,78.18
2023-02-02T19:25:23.292Z,78.70
2023-02-02T19:27:46.124Z,78.84
2023-02-02T19:30:18.253Z,78.99
2023-02-02T19:32:41.718Z,79.17
2023-02-02T19:35:07.251Z,79.37
2023-02-02T19:37:32.652Z,79.35
2023-02-02T19:40:18.076Z,79.45
2023-02-02T19:42:44.905Z,79.71
2023-02-02T19:45:40.794Z,80.06
2023-02-02T19:48:31.213Z,80.55
2023-02-02T19:50:55.837Z,80.61
2023-02-02T19:53:24.631Z,80.94
2023-02-02T19:55:48.031Z,81.24
2023-02-02T19:58:16.814Z,81.17
2023-02-02T20:00:41.340Z,81.17
2023-02-02T20:03:08.046Z,81.42
2023-02-02T20:05:44.909Z,81.46
2023-02-02T20:08:29.930Z,81.77
2023-02-02T20:10:55.041Z,81.39
2023-02-02T20:13:34.246Z,81.44
2023-02-02T20:16:03.825Z,81.19
2023-02-02T20:18:41.353Z,81.10
2023-02-02T20:21:16.644Z,81.22
2023-02-02T20:23:45.508Z,81.37
2023-02-02T20:26:26.133Z,81.51
2023-02-02T20:28:50.037Z,81.59
2023-02-02T20:31:17.136Z,81.88
2023-02-02T20:33:47.598Z,81.82
2023-02-02T20:36:30.802Z,81.83
2023-02-02T20:38:53.783Z,81.76
2023-02-02T20:41:18.769Z,82.07
2023-02-02T20:43:41.325Z,81.97
2023-02-02T20:46:03.953Z,81.82
2023-02-02T20:48:27.610Z,81.85
2023-02-02T20:50:50.514Z,82.23
2023-02-02T20:53:16.690Z,82.59
2023-02-02T20:55:39.563Z,82.23
2023-02-02T20:58:06.632Z,82.62
2023-02-02T21:00:30.091Z,82.61
2023-02-02T21:02:54.169Z,82.66
2023-02-02T21:05:16.711Z,82.63
2023-02-02T21:07:39.411Z,82.68
2023-02-02T21:10:02.222Z,82.83
2023-02-02T21:12:25.780Z,82.84
2023-02-02T21:14:48.310Z,82.78
2023-02-02T21:17:15.245Z,82.57
2023-02-02T21:19:58.867Z,82.73
2023-02-02T21:22:21.671Z,82.57
2023-02-02T21:24:44.145Z,82.83
2023-02-02T21:27:07.641Z,82.71
2023-02-02T21:29:31.717Z,82.90
2023-02-02T21:31:58.766Z,82.73
2023-02-02T21:34:21.350Z,82.59
2023-02-02T21:36:48.544Z,82.46
2023-02-02T21:39:48.571Z,82.75
2023-02-02T21:42:15.210Z,82.82
2023-02-02T21:44:44.094Z,82.99
2023-02-02T21:47:32.413Z,82.98
2023-02-02T21:49:57.680Z,82.90
2023-02-02T21:52:20.512Z,82.64
2023-02-02T21:54:44.273Z,82.51
2023-02-02T21:57:27.886Z,82.44
2023-02-02T21:59:59.726Z,82.63
2023-02-02T22:02:42.578Z,82.48
2023-02-02T22:05:17.943Z,82.66
2023-02-02T22:07:42.531Z,82.60
2023-02-02T22:10:20.952Z,82.54
2023-02-02T22:12:43.787Z,82.46
2023-02-02T22:15:20.909Z,82.76
2023-02-02T22:17:45.822Z,82.56
2023-02-02T22:20:17.705Z,82.69
2023-02-02T22:22:46.469Z,82.89
2023-02-02T22:25:36.594Z,83.25
2023-02-02T22:28:02.645Z,83.25
2023-02-02T22:30:25.684Z,83.31
2023-02-02T22:32:48.610Z,83.65
2023-02-02T22:35:11.225Z,83.23
2023-02-02T22:37:33.777Z,83.25
2023-02-02T22:39:56.399Z,82.97
2023-02-02T22:42:18.986Z,83.09
2023-02-02T22:44:44.012Z,82.96
2023-02-02T22:47:06.625Z,83.05
2023-02-02T22:49:29.289Z,83.11
2023-02-02T22:51:54.169Z,83.12
2023-02-02T22:54:16.872Z,82.91
2023-02-02T22:56:39.468Z,82.74
2023-02-02T22:59:03.501Z,83.05
2023-02-02T23:01:26.902Z,82.76
2023-02-02T23:03:49.742Z,82.28
2023-02-02T23:06:12.463Z,82.35
2023-02-02T23:08:35.328Z,82.38
2023-02-02T23:10:57.975Z,82.20
2023-02-02T23:13:20.709Z,82.56
2023-02-02T23:15:43.570Z,82.59
2023-02-02T23:18:06.556Z,82.60
2023-02-02T23:20:29.528Z,82.68
2023-02-02T23:22:52.364Z,82.62
2023-02-02T23:25:15.907Z,82.69
2023-02-02T23:27:38.960Z,82.64
2023-02-02T23:30:01.574Z,82.74
2023-02-02T23:32:24.633Z,83.07
2023-02-02T23:34:47.307Z,82.91
2023-02-02T23:37:09.950Z,82.88
2023-02-02T23:39:32.641Z,83.00
2023-02-02T23:41:55.416Z,82.77
2023-02-02T23:44:18.071Z,82.71
2023-02-02T23:46:41.327Z,82.63
2023-02-02T23:49:04.350Z,82.79
2023-02-02T23:51:27.003Z,82.77
2023-02-02T23:53:49.898Z,82.59
2023-02-02T23:56:12.417Z,82.35
2023-02-02T23:58:34.930Z,82.20
